createdAt,value
2018-08-31T00:00:01.161Z,11.54
2018-08-31T00:05:01.438Z,11.46
2018-08-31T00:10:01.866Z,11.4
2018-08-31T00:15:01.153Z,11.32
2018-08-31T00:20:01.402Z,11.27
2018-08-31T00:25:01.862Z,11.24
2018-08-31T00:30:01.135Z,11.26
2018-08-31T00:35:01.443Z,11.32
2018-08-31T00:40:01.779Z,11.29
2018-08-31T00:45:02.044Z,11.25
2018-08-31T00:50:01.339Z,11.23
2018-08-31T00:55:01.690Z,11.24
2018-08-31T01:00:02.025Z,11.26
2018-08-31T01:05:01.479Z,11.24
2018-08-31T01:10:01.930Z,11.26
2018-08-31T01:15:01.384Z,11.24
2018-08-31T01:20:01.806Z,11.3
2018-08-31T01:25:01.283Z,11.34
2018-08-31T01:30:01.432Z,11.43
2018-08-31T01:35:01.776Z,11.48
2018-08-31T01:40:01.154Z,11.53
2018-08-31T01:45:01.394Z,11.57
2018-08-31T01:50:01.771Z,11.59
2018-08-31T01:55:02.045Z,11.62
2018-08-31T02:00:01.287Z,11.63
2018-08-31T02:05:01.737Z,11.63
2018-08-31T02:10:02.083Z,11.62
2018-08-31T02:15:01.384Z,11.57
2018-08-31T02:20:01.838Z,11.53
2018-08-31T02:25:01.289Z,11.49
2018-08-31T02:30:01.609Z,11.42
2018-08-31T02:35:02.004Z,11.37
2018-08-31T02:40:01.651Z,11.31
2018-08-31T02:45:02.020Z,11.27
2018-08-31T02:50:01.571Z,11.18
2018-08-31T02:55:01.997Z,11.14
2018-08-31T03:00:01.230Z,11.07
2018-08-31T03:05:01.605Z,11
2018-08-31T03:10:02.002Z,10.98
2018-08-31T03:15:01.271Z,10.97
2018-08-31T03:20:01.644Z,10.89
2018-08-31T03:25:02.120Z,10.88
2018-08-31T03:30:01.367Z,10.85
2018-08-31T03:35:01.802Z,10.81
2018-08-31T03:40:01.115Z,10.78
2018-08-31T03:45:01.388Z,10.73
2018-08-31T03:50:01.722Z,10.79
2018-08-31T03:55:01.084Z,10.75
2018-08-31T04:00:01.330Z,10.74
2018-08-31T04:05:01.748Z,10.71
2018-08-31T04:10:01.120Z,10.73
2018-08-31T04:15:01.441Z,10.7
2018-08-31T04:20:01.967Z,10.7
2018-08-31T04:25:01.370Z,10.62
2018-08-31T04:30:01.710Z,10.6
2018-08-31T04:35:02.073Z,10.58
2018-08-31T04:40:01.209Z,10.58
2018-08-31T04:45:01.466Z,10.53
2018-08-31T04:50:01.729Z,10.54
2018-08-31T04:55:02.134Z,10.5
2018-08-31T05:00:01.373Z,10.56
2018-08-31T05:05:01.697Z,10.62
2018-08-31T05:10:01.074Z,10.65
2018-08-31T05:15:01.345Z,10.67
2018-08-31T05:20:01.755Z,10.71
2018-08-31T05:25:01.165Z,10.84
2018-08-31T05:30:01.402Z,10.89
2018-08-31T05:35:01.889Z,10.89
2018-08-31T05:40:01.242Z,10.92
2018-08-31T05:45:01.585Z,11.07
2018-08-31T05:50:01.861Z,11.17
2018-08-31T05:55:01.264Z,11.3
2018-08-31T06:00:01.499Z,11.34
2018-08-31T06:05:01.918Z,11.43
2018-08-31T06:10:01.272Z,11.69
2018-08-31T06:15:01.562Z,11.78
2018-08-31T06:20:01.900Z,11.99
2018-08-31T06:25:01.253Z,12.25
2018-08-31T06:30:01.547Z,12.5
2018-08-31T06:35:01.808Z,12.71
2018-08-31T06:40:02.064Z,12.89
2018-08-31T06:45:01.304Z,13.09
2018-08-31T06:50:01.626Z,13.15
2018-08-31T06:55:02.007Z,13.34
2018-08-31T07:00:01.254Z,13.52
2018-08-31T07:05:01.682Z,13.68
2018-08-31T07:10:02.040Z,13.86
2018-08-31T07:15:01.269Z,13.88
2018-08-31T07:20:01.594Z,13.9
2018-08-31T07:25:02.029Z,14.01
2018-08-31T07:30:01.352Z,14.07
2018-08-31T07:35:01.785Z,14.14
2018-08-31T07:40:01.136Z,14.2
2018-08-31T07:45:01.373Z,14.27
2018-08-31T07:50:01.764Z,14.5
2018-08-31T07:55:01.080Z,14.5
2018-08-31T08:00:01.302Z,14.5
2018-08-31T08:05:01.787Z,14.67
2018-08-31T08:10:01.200Z,15.04
2018-08-31T08:15:01.491Z,15.19
2018-08-31T08:20:01.852Z,15.54
2018-08-31T08:25:01.204Z,16
2018-08-31T08:30:01.454Z,15.95
2018-08-31T08:35:01.920Z,16.22
2018-08-31T08:40:01.329Z,16.89
2018-08-31T08:45:01.640Z,16.57
2018-08-31T08:50:01.982Z,16.47
2018-08-31T08:55:01.402Z,16.49
2018-08-31T09:00:01.686Z,16.85
2018-08-31T09:05:02.085Z,16.91
2018-08-31T09:10:01.548Z,17.1
2018-08-31T09:15:01.804Z,16.87
2018-08-31T09:20:01.080Z,16.32
2018-08-31T09:25:01.333Z,16.27
2018-08-31T09:30:01.649Z,16.45
2018-08-31T09:35:01.977Z,16.61
2018-08-31T09:40:01.365Z,16.57
2018-08-31T09:45:01.640Z,16.5
2018-08-31T09:50:02.012Z,16.46
2018-08-31T09:55:01.430Z,16.42
2018-08-31T10:00:01.688Z,16.61
2018-08-31T10:05:02.047Z,16.71
2018-08-31T10:10:01.498Z,16.73
2018-08-31T10:15:01.737Z,17.14
2018-08-31T10:20:02.120Z,17.51
2018-08-31T10:25:01.537Z,17.26
2018-08-31T10:30:01.837Z,17.77
2018-08-31T10:35:01.303Z,18.1
2018-08-31T10:40:01.620Z,18.08
2018-08-31T10:45:01.864Z,17.95
2018-08-31T10:50:01.166Z,17.6
2018-08-31T10:55:01.432Z,17.81
2018-08-31T11:00:01.717Z,18.22
2018-08-31T11:05:02.078Z,18.4
2018-08-31T11:10:01.490Z,18.3
2018-08-31T11:15:01.743Z,18.58
2018-08-31T11:20:01.095Z,18.57
2018-08-31T11:25:01.365Z,18.17
2018-08-31T11:30:01.628Z,18.25
2018-08-31T11:35:01.957Z,17.83
2018-08-31T11:40:01.319Z,18.06
2018-08-31T11:45:01.560Z,18.09
2018-08-31T11:50:01.944Z,18.21
2018-08-31T11:55:01.445Z,18.03
2018-08-31T12:00:01.816Z,18.33
2018-08-31T12:05:01.105Z,18.64
2018-08-31T12:10:01.367Z,18.49
2018-08-31T12:15:01.673Z,18.5
2018-08-31T12:20:01.963Z,18.62
2018-08-31T12:25:01.378Z,18.74
2018-08-31T12:30:01.632Z,18.82
2018-08-31T12:35:01.976Z,18.65
2018-08-31T12:40:01.355Z,18.5
2018-08-31T12:45:01.647Z,18.37
2018-08-31T12:50:01.953Z,18.44
2018-08-31T12:55:01.425Z,18.69
2018-08-31T13:00:01.806Z,18.78
2018-08-31T13:05:01.266Z,18.94
2018-08-31T13:10:01.616Z,19
2018-08-31T13:15:01.883Z,19.24
2018-08-31T13:20:01.335Z,19.18
2018-08-31T13:25:01.236Z,19.37
2018-08-31T13:30:01.579Z,19.17
2018-08-31T13:35:02.048Z,19.09
2018-08-31T13:40:01.493Z,18.93
2018-08-31T13:45:01.898Z,18.87
2018-08-31T13:50:01.501Z,19.07
2018-08-31T13:55:01.396Z,18.99
2018-08-31T14:00:01.668Z,19.25
2018-08-31T14:05:02.057Z,19.33
2018-08-31T14:10:01.468Z,19.27
2018-08-31T14:15:01.730Z,19.35
2018-08-31T14:20:02.122Z,19.55
2018-08-31T14:25:01.630Z,19.67
2018-08-31T14:30:02.087Z,19.6
2018-08-31T14:35:01.152Z,19.37
2018-08-31T14:40:01.565Z,19.15
2018-08-31T14:45:01.825Z,19.09
2018-08-31T14:50:02.377Z,18.8
2018-08-31T14:55:01.321Z,18.65
2018-08-31T15:00:01.590Z,18.64
2018-08-31T15:05:01.933Z,18.59
2018-08-31T15:10:01.376Z,18.57
2018-08-31T15:15:01.660Z,18.65
2018-08-31T15:20:02.043Z,18.66
2018-08-31T15:25:01.565Z,18.64
2018-08-31T15:30:01.972Z,18.89
2018-08-31T15:35:01.245Z,19.03
2018-08-31T15:40:01.571Z,19.16
2018-08-31T15:45:01.822Z,18.94
2018-08-31T15:50:02.140Z,18.92
2018-08-31T15:55:01.579Z,18.71
2018-08-31T16:00:01.817Z,18.51
2018-08-31T16:05:01.113Z,18.48
2018-08-31T16:10:01.427Z,18.52
2018-08-31T16:15:01.669Z,18.57
2018-08-31T16:20:01.952Z,18.59
2018-08-31T16:25:01.355Z,18.5
2018-08-31T16:30:01.655Z,18.39
2018-08-31T16:35:02.002Z,18.34
2018-08-31T16:40:01.428Z,18.29
2018-08-31T16:45:01.701Z,18.29
2018-08-31T16:50:02.112Z,18.25
2018-08-31T16:55:01.577Z,18.28
2018-08-31T17:00:01.832Z,18.2
2018-08-31T17:05:01.334Z,18.17
2018-08-31T17:10:01.649Z,18.06
2018-08-31T17:15:01.893Z,17.89
2018-08-31T17:20:01.148Z,17.88
2018-08-31T17:25:01.435Z,17.82
2018-08-31T17:30:01.725Z,17.7
2018-08-31T17:35:02.049Z,17.6
2018-08-31T17:40:01.532Z,17.47
2018-08-31T17:45:01.810Z,17.39
2018-08-31T17:50:02.179Z,17.4
2018-08-31T17:55:01.616Z,17.36
2018-08-31T18:00:01.869Z,17.31
2018-08-31T18:05:01.138Z,17.14
2018-08-31T18:10:01.523Z,17.15
2018-08-31T18:15:01.790Z,17.01
2018-08-31T18:20:02.129Z,16.91
2018-08-31T18:25:01.535Z,16.85
2018-08-31T18:30:01.888Z,16.74
2018-08-31T18:35:01.160Z,16.56
2018-08-31T18:40:01.505Z,16.34
2018-08-31T18:45:01.164Z,16.16
2018-08-31T18:50:01.446Z,15.99
2018-08-31T18:55:01.770Z,15.69
2018-08-31T19:00:02.054Z,15.51
2018-08-31T19:05:01.366Z,15.18
2018-08-31T19:10:01.668Z,14.94
2018-08-31T19:15:01.967Z,14.73
2018-08-31T19:20:01.250Z,14.54
2018-08-31T19:25:01.598Z,14.35
2018-08-31T19:30:01.134Z,14.14
2018-08-31T19:35:01.402Z,14
2018-08-31T19:40:01.743Z,13.81
2018-08-31T19:45:01.981Z,13.64
2018-08-31T19:50:01.241Z,13.49
2018-08-31T19:55:01.517Z,13.41
2018-08-31T20:00:01.773Z,13.25
2018-08-31T20:05:01.151Z,13.17
2018-08-31T20:10:01.429Z,13.1
2018-08-31T20:15:02.015Z,13.05
2018-08-31T20:20:01.266Z,12.97
2018-08-31T20:25:01.629Z,12.95
2018-08-31T20:30:01.882Z,13.03
2018-08-31T20:35:01.142Z,13.03
2018-08-31T20:40:01.430Z,13.01
2018-08-31T20:45:01.730Z,13.04
2018-08-31T20:50:02.027Z,13.09
2018-08-31T20:55:01.441Z,13.26
2018-08-31T21:00:01.698Z,13.15
2018-08-31T21:05:02.047Z,12.95
2018-08-31T21:10:01.506Z,12.73
2018-08-31T21:15:01.760Z,12.51
2018-08-31T21:20:02.119Z,12.33
2018-08-31T21:25:01.538Z,12.23
2018-08-31T21:30:01.798Z,12.08
2018-08-31T21:35:01.102Z,12.05
2018-08-31T21:40:01.423Z,12.03
2018-08-31T21:45:01.709Z,11.97
2018-08-31T21:50:02.104Z,11.9
2018-08-31T21:55:01.531Z,11.76
2018-08-31T22:00:01.813Z,11.59
2018-08-31T22:05:01.108Z,11.48
2018-08-31T22:10:01.382Z,11.32
2018-08-31T22:15:01.661Z,11.22
2018-08-31T22:20:02.019Z,11.14
2018-08-31T22:25:01.257Z,11.05
2018-08-31T22:30:01.525Z,11.02
2018-08-31T22:35:01.894Z,10.96
2018-08-31T22:40:01.292Z,10.84
2018-08-31T22:45:01.557Z,10.77
2018-08-31T22:50:01.860Z,10.68
2018-08-31T22:55:01.238Z,10.6
2018-08-31T23:00:01.540Z,10.59
2018-08-31T23:05:01.930Z,10.56
2018-08-31T23:10:01.333Z,10.57
2018-08-31T23:15:01.628Z,10.58
2018-08-31T23:20:01.917Z,10.63
2018-08-31T23:25:01.329Z,10.51
2018-08-31T23:30:01.644Z,10.44
2018-08-31T23:35:02.048Z,10.36
2018-08-31T23:40:01.503Z,10.27
2018-08-31T23:45:01.742Z,10.16
2018-08-31T23:50:02.104Z,10.09
2018-08-31T23:55:01.552Z,10
